Forum


Ask a question

No. FLOSS Question Date
Views
Answers
1 OpenFOAM Is learning core java is beneficial for an IT fresher? 2022-06-28 06:28:29.306594 14 1
2 OpenFOAM How to define Inlet and Outlet for a pipe before meshing and simulating in OpenFOAM? 2022-06-22 07:22:14.905781 39 4
3 OpenFOAM Parallel job run on multiple nodes - OpenFOAM 2022-06-15 09:34:35.878228 50 2
4 OpenFOAM Venue & Event Booking Software for Theatres & Performing Arts Centers 2022-06-03 16:04:17.087597 15 0
5 OpenFOAM Sitecore TDS Packages vs Sitecore packages 2022-05-20 01:30:25.244727 93 2
6 OpenFOAM Error writing function objects 2022-05-19 05:48:37.542597 78 1
7 OpenFOAM Are you worried about the image of your brand? 2022-05-15 11:03:49.394475 107 5
8 OpenFOAM Buy Clothes For Hiking 2022-05-09 10:54:47.901030 111 6
9 OpenFOAM NordVPN 3 year deal 2022-04-25 10:20:56.545629 132 5
10 OpenFOAM Do you know slope 2 2022-04-15 03:24:54.438590 21 0
11 OpenFOAM Character encoding issue with Mulesoft IBM MQ Connector 2022-04-13 12:16:11.358140 27 0
12 OpenFOAM Restrict Lambda function URL access to CloudFront 2022-04-13 10:12:57.607492 34 1
13 OpenFOAM AWS DevOps Guru not able to track 5XX on application level 2022-04-12 05:06:03.134950 41 0
14 OpenFOAM How to Optimize Your Website for Search Engines in 2022 2022-04-04 18:57:20.252997 261 11
15 OpenFOAM Bamboo Pulp Fabric 2022-04-04 11:15:29.785397 177 0
16 OpenFOAM CNC Camera Accessories 2022-04-04 10:37:03.563433 148 0
17 OpenFOAM Dog bowl suppliers 2022-04-04 09:32:08.553153 153 0
18 OpenFOAM Allen study material for jee and neet 2022-02-18 07:47:43.417608 260 2
19 OpenFOAM can anyone tell with example how can we use 'meshToMesh' function in openFoam 2022-02-11 08:58:03.459847 314 4
20 OpenFOAM noSlip doesn't satisfy zero velocity 2022-01-18 15:37:01.212856 320 3
21 OpenFOAM What are the career opportunities for AutoCAD experts ? 2022-01-18 14:40:05.237495 332 5
22 OpenFOAM add a source term 2022-01-13 08:51:25.643049 303 5
23 OpenFOAM Unable to obtain samples at writeInterval 2022-01-11 11:30:59.490659 10 0
24 OpenFOAM Temperature Dependent Thermal Properties in LaplacianFoam 2022-01-05 05:22:55.799612 322 7
25 OpenFOAM Unable to import mesh from Fluent 2022-01-03 13:42:23.972472 294 4
26 OpenFOAM changing STL position breaks simulation or crash solver 2021-12-27 21:22:59.522348 322 5
27 OpenFOAM How to fix Boundary Openness and Open Cell errors? 2021-12-25 16:44:09.951781 408 5
28 OpenFOAM How to wisely choose a Courant Number? 2021-11-24 19:00:58.427146 425 2
29 OpenFOAM ParaView Issue 2021-11-24 09:02:25.113542 364 3
30 OpenFOAM Is my code correct? 2021-11-21 17:08:33.809330 396 6
31 OpenFOAM calculation of thrust force 2021-11-14 04:58:20.063407 393 3
32 OpenFOAM Old OpenFOAM4.0 solver into the new OpenFOAM8.0 2021-11-12 03:12:16.537839 378 4
33 OpenFOAM Openfoam installation problem using virtual machine in MacBook M1 laptop 2021-10-28 09:37:13.063835 538 7
34 OpenFOAM Buy Mixer Grinders Online at Best Prices in India 2021-10-25 06:48:36.007874 5 0
35 OpenFOAM Permission denied for accessing any file/folder from the main directory(run directory) which was pasted in the run folder. 2021-10-19 11:02:24.252428 590 11
36 OpenFOAM Excel Tasks Help 2021-10-11 11:17:26.751381 37 0
37 OpenFOAM Is there a way to run windows software on Chromebook? 2021-10-06 09:48:33.356098 42 0
38 OpenFOAM Regarding problem in residual plot 2021-09-17 01:56:49.020450 476 4
39 OpenFOAM Negative Initial temperature error in openfoam 2021-09-16 07:12:55.220368 1256 22
40 OpenFOAM getting cell dimensions 2021-09-14 10:56:37.767673 612 5
41 OpenFOAM dsmcFoam + cht solver combination possible? 2021-09-05 17:57:38.204638 545 8
42 OpenFOAM how can we average our data over any time interval, after the simulation is finished? 2021-09-02 11:36:00.163268 786 19
43 OpenFOAM large eddy simulation filtering 2021-08-31 06:56:12.406990 541 3
44 OpenFOAM Calculate water depth in openfoam 2021-08-17 04:21:42.156495 568 7
45 OpenFOAM Regarding Time Dependent BC 2021-08-12 04:59:54.375943 591 7
46 OpenFOAM How to find internal field 2021-07-27 09:40:03.930213 612 7
47 OpenFOAM How to write a udf in openfoam 2021-07-26 09:55:06.430047 688 2
48 OpenFOAM error in openfoam 2021-07-23 03:34:57.837153 625 6
49 OpenFOAM Regarding Error in opefoam 2021-07-18 02:07:08.803247 578 9
50 OpenFOAM Mass Flow Rate Calculation coding 2021-07-04 16:25:26.137351 681 2
51 OpenFOAM how to construct another phi in interFoam? 2021-07-02 20:26:21.204588 637 1
52 OpenFOAM Simulating an Aerofoil 2021-07-01 15:07:29.249138 580 1
53 OpenFOAM what does fvc::interpolate(rho) actually do in interFoam? 2021-06-30 18:56:26.123988 695 2
54 OpenFOAM Regarding mappedpatch inlet for wallboiling tutorial from reactingTwoPhaseEulerFoam 2021-06-23 16:32:14.074059 725 5
55 OpenFOAM best salon for keratin treatment in bangalore 2021-05-24 14:41:02.226655 7 0
56 OpenFOAM best b school in bangalore? 2021-05-24 12:17:39.900456 7 0
57 OpenFOAM Digital marketing company in Bangalore 2021-05-24 09:24:33.749760 8 0
58 OpenFOAM Time control settings for a periodic bulk forcing 2021-05-20 12:52:08.114050 1122 41
59 OpenFOAM How can I convert a steady state solver to a transient state solver? (time-dependent) 2021-05-13 07:22:42.035917 799 5
60 OpenFOAM Swirl Atomization 2021-05-04 01:44:43.296444 688 1
61 OpenFOAM gcc: error: unrecognized command line option ‘--showme:link’ 2021-04-27 11:00:44.095505 1481 1
62 OpenFOAM How to put pressure when using cyclic boundary condition 2021-04-24 07:59:56.793707 809 3
63 OpenFOAM Regarding this error 2021-04-07 03:47:18.194977 826 12
64 OpenFOAM Let the accounting assignment help to finish your assignments on time 2021-03-13 08:46:19.380646 80 4
65 OpenFOAM how i can add the scale function in open foam 2021-03-03 14:40:11.622886 764 3
66 OpenFOAM boundary conditions 2021-02-27 11:09:12.451700 855 3
67 OpenFOAM Value of diffusion coefficient in scalar transport foam 2021-02-18 05:06:23.346334 891 2
68 OpenFOAM Power Law boundary inlet velocity condition 2021-02-06 08:52:36.277770 1002 1
69 OpenFOAM Which Company Provide Best landing page designing services In delhi? 2021-02-05 10:18:28.414243 113 0
70 OpenFOAM Wing Motion - Dynamic Mesh using pimpleFoam 2021-01-27 05:08:21.835917 1003 10
71 OpenFOAM Faulty mobile download application? 2021-01-09 07:12:14.335900 38 3
72 OpenFOAM Incorrect lift co-efficients with buoyantBoussinesqPimpleFoam 2020-12-28 07:14:52.246656 1058 14
73 OpenFOAM MPI parallel run issue for RBF motion solver in foam extend 4.0 2020-12-09 08:56:18.424466 924 2
74 OpenFOAM Openfoam cannot find a single face in the mesh which uses vertices 2020-12-02 16:42:03.926873 1117 1
75 OpenFOAM Decreasing the value of y+ 2020-11-29 11:34:07.125783 908 1
76 OpenFOAM Obtaining csv data from xy plot in Paraview 2020-11-05 13:06:17.962619 1073 1
77 OpenFOAM 2d pressure swirl atomizer using vof 2020-11-03 17:37:17.735673 1304 11
78 OpenFOAM How to create ZeroThicknessWall in SnappyHexMesh? Also Can I use toposet (or splitmesh) to create zone for adding momentum source in buoyantBoussinesqFoams? 2020-10-29 12:43:31.890430 1317 4
79 OpenFOAM Difference between foam and algorithm in openfoam 2020-10-29 07:48:12.297067 1014 2
80 OpenFOAM Radial Basis Function (RBF) mesh motion solver for pitching motion 2020-10-28 17:35:49.862215 1144 2
81 OpenFOAM Types of dynamic mesh motion solver for pitching airfoil 2020-10-28 15:58:19.216544 1342 2
82 OpenFOAM AMR to capture shocks 2020-10-24 13:20:43.707589 1023 3
83 OpenFOAM Non-Dimensional Contour Plots 2020-10-23 14:01:06.296716 966 3
84 OpenFOAM Problem before Instaling OPENFOAM 2020-09-19 12:46:45.788734 1069 4
85 OpenFOAM Large eddy simulation 2020-08-12 05:34:28.148779 1200 1
86 OpenFOAM Regarding error in new expression syntax in openfoam 1912 2020-07-15 16:04:36.767775 1146 1
87 OpenFOAM How to update supply temperature on boundary based on the measured temperature on another boundary patch in OpenFOAM? 2020-07-03 13:26:43.962960 1176 1
88 OpenFOAM PostProcess for OpenFOAM1606+ 2020-06-16 12:37:39.980929 1196 1
89 OpenFOAM Mesh generation using blockMesh utility 2020-03-02 11:13:02.251839 1495 11
90 OpenFOAM Convergence problem in steady state simulation of centrifugal fan in openfoam 2019-11-22 07:55:27.815884 2222 1
91 OpenFOAM Where to add new field while using dsmcfoam? 2019-11-22 04:17:40.010364 1582 3
92 OpenFOAM Error: Pcorr goes to nan. (Diverging) 2019-09-12 16:37:05.219232 1358 3
93 OpenFOAM Help me choose MFEM vs deal_ii 2019-08-29 07:35:13.851320 1429 2
94 OpenFOAM Choosing appropriate boundary conditions for turbulent quantities 2019-08-13 01:54:04.383335 1382 1
95 OpenFOAM Multiple AMI, decreasing time step. 2019-07-15 09:42:15.003499 1524 1
96 OpenFOAM Inlet Velocity 2019-06-28 12:53:09.638190 1503 4
97 OpenFOAM No creation of processed files even after running. 2019-02-06 15:56:59.781942 1471 1
98 OpenFOAM Choosing exact boundary conditions 2018-12-18 04:31:26.729700 1898 3
99 OpenFOAM Regarding Proposal 2018-12-17 05:59:28.228096 1490 1
100 OpenFOAM Query regarding heat flux boundary condition in OpenFOAM 2018-12-16 12:40:09.657563 1514 1
101 OpenFOAM Heat flux boundary condition in OpenFOAM 2018-12-14 19:44:13.938906 3541 1
102 OpenFOAM Boundary condition at inlet 2018-11-10 18:46:57.000000 1716 2
103 OpenFOAM Foam::error::printStack(Foam::Ostream&) at ??:? 2018-09-27 06:00:30.000000 4587 2
104 OpenFOAM Continuity error cannot be removed by adjusting the outflow. 2018-09-19 07:52:53.000000 3965 1
105 OpenFOAM Convergence in Open Foam Simulation 2018-07-13 13:10:12.000000 1615 1
106 OpenFOAM Salome bentpipe to OpenFOAM 2018-07-01 21:39:30.000000 1674 1
107 OpenFOAM Using multiInteraction type patchInteractionModel 2018-05-16 06:46:43.000000 1771 1
108 OpenFOAM Why Initial residual is not equal to the final residual obtained from the previous iteration in case of fvDOM radiation solver? 2018-03-07 06:08:09.000000 2119 1
109 OpenFOAM Looking for Solver for Three Phase Heat Transfer with phase change for Cryogenic System 2017-11-29 05:15:20.000000 1850 2
110 OpenFOAM Resource persons for OPENFOAM Software. 2017-11-22 09:29:39.000000 1733 1
111 OpenFOAM diffusivity directional variables 2017-08-30 12:50:18.000000 1909 1
112 OpenFOAM change of volume inside pipe 2017-08-11 11:55:39.000000 1826 3
113 OpenFOAM OpenFOAM Issue with Porous Media and Buoyancy 2017-08-02 07:11:23.000000 9602 1
114 OpenFOAM vertical loading in interfoam 2017-07-11 15:10:27.000000 1774 1
115 OpenFOAM Convergence while using icoFoam 2017-07-06 09:39:26.000000 1974 1
116 OpenFOAM Simulation Of Flow over cylinder with forward splitter plate 2017-07-03 15:49:32.000000 1786 1
117 OpenFOAM OpenFOAM-1.6.x Installation Error 2017-06-07 10:18:39.000000 1843 1
118 OpenFOAM Dynamic Moving Mesh 2017-05-20 12:08:53.000000 1789 1
119 OpenFOAM How to Create Baffles in Geometry 2017-05-17 10:17:39.000000 4096 1
120 OpenFOAM How to create a internal gate? 2017-04-25 11:30:22.000000 2197 1
121 OpenFOAM Cannot find flow at bottom surface_slump test 2017-04-25 11:17:15.000000 1848 4
122 OpenFOAM plotting at a definite point 2017-04-14 14:01:59.000000 1897 1
123 OpenFOAM getting time-average flow fields within certain time interval 2017-04-09 06:48:05.000000 2646 1
124 OpenFOAM plotting skin friction coefficient 2017-04-03 04:28:55.000000 3509 1
125 OpenFOAM laminar separation bubble 2017-04-02 08:04:30.000000 1759 1
126 OpenFOAM SnappyHexMesh Tutorial 2017-04-01 06:01:29.000000 2415 1
127 OpenFOAM pressure plot in paraFoam 2017-03-27 01:22:03.000000 3165 1
128 OpenFOAM post-processing in paraview 2017-03-10 11:24:48.000000 2259 1
129 OpenFOAM How to find/call each individual cell in a computational domain 2017-03-08 13:50:24.000000 3911 4
130 OpenFOAM multiPhaseEulerFoam case running issue.. 2017-01-17 17:47:23.000000 2274 1
131 OpenFOAM Basic queries regarding cad, mesh and sim 2017-01-16 08:39:10.000000 1854 2
132 OpenFOAM post-processing problem 2016-11-23 13:36:35.000000 2180 1
133 OpenFOAM problem in results 2016-11-21 07:10:46.000000 1889 2
134 OpenFOAM openfoam to firefoam throuh paraview? 2016-11-01 15:07:10.000000 2472 4
135 OpenFOAM No vortex shedding 2016-10-31 05:55:03.000000 1919 1
136 OpenFOAM paraview tools 2016-10-21 05:07:48.000000 1988 1
137 OpenFOAM error while running a solver 2016-10-13 18:09:34.000000 7799 1
138 OpenFOAM SurfaceTracking 2016-10-06 12:32:53.000000 1956 1
139 OpenFOAM boundary condition 2016-09-26 17:04:35.000000 1831 1
140 OpenFOAM plotting the residuals 2016-08-23 14:45:56.000000 3272 1
141 OpenFOAM plotting in paraview 2016-08-16 09:47:55.000000 1874 2
142 OpenFOAM co-efficient of drag and lift 2016-08-03 10:15:57.000000 2085 4
143 OpenFOAM opemFoam 2016-08-02 10:02:33.000000 2010 2
144 OpenFOAM PROBLEM 2016-07-21 04:44:36.000000 2037 1
145 OpenFOAM blockmeshdict file 2016-06-23 05:50:12.000000 2086 1
146 OpenFOAM Writing blockMeshDict file 2016-06-14 04:06:00.000000 2108 1
147 OpenFOAM object inspector menu in paraview 2016-05-25 10:04:12.000000 2356 1
148 OpenFOAM TROUBLE IN SIMULATION 2016-05-15 04:19:14.000000 2340 2
149 OpenFOAM Simulation of Euler-lagrangian bubble using OpenFOAM 2016-05-11 12:28:45.000000 2794 2
150 OpenFOAM OPENFOAM IN WINDOWS 2016-05-10 08:35:05.000000 2450 1
151 OpenFOAM How to plot a graph in Open foam 2016-04-24 17:18:48.000000 3099 1
152 OpenFOAM Error in Turbulence Solver 2016-03-18 18:16:37.000000 8316 7
153 OpenFOAM Simulation error (delta T is decreasing while the iterations are being carried out) 2016-03-12 19:12:05.000000 7763 5
154 OpenFOAM charger making sparking like noise 2015-08-31 13:33:10.000000 2110 1